createdAt,value
2022-12-10T00:00:25.392Z,95866.41
2022-12-10T00:03:12.266Z,95864.78
2022-12-10T00:06:03.760Z,95874.13
2022-12-10T00:08:51.070Z,95873.47
2022-12-10T00:11:41.333Z,95872.81
2022-12-10T00:14:30.869Z,95879.72
2022-12-10T00:17:17.789Z,95874.47
2022-12-10T00:20:05.233Z,95867.06
2022-12-10T00:22:52.106Z,95878.25
2022-12-10T00:25:43.801Z,95880.69
2022-12-10T00:28:30.786Z,95884.50
2022-12-10T00:31:20.443Z,95886.94
2022-12-10T00:34:10.898Z,95880.06
2022-12-10T00:36:57.693Z,95875.13
2022-12-10T00:39:44.512Z,95882.69
2022-12-10T00:42:31.325Z,95873.50
2022-12-10T00:45:19.772Z,95886.31
2022-12-10T00:48:06.606Z,95892.53
2022-12-10T00:50:57.646Z,95898.44
2022-12-10T00:53:45.546Z,95893.81
2022-12-10T00:56:33.564Z,95896.63
2022-12-10T00:59:20.356Z,95902.06
2022-12-10T01:02:07.190Z,95905.50
2022-12-10T01:04:54.902Z,95895.16
2022-12-10T01:08:03.457Z,95893.53
2022-12-10T01:10:56.904Z,95884.16
2022-12-10T01:13:47.637Z,95884.16
2022-12-10T01:16:34.900Z,95872.22
2022-12-10T01:19:22.069Z,95868.41
2022-12-10T01:22:09.003Z,95869.44
2022-12-10T01:24:55.906Z,95918.81
2022-12-10T01:27:42.724Z,95918.16
2022-12-10T01:30:29.565Z,95917.34
2022-12-10T01:33:16.436Z,95930.09
2022-12-10T01:36:12.868Z,95925.22
2022-12-10T01:39:00.458Z,95936.34
2022-12-10T01:41:53.444Z,95934.72
2022-12-10T01:44:42.983Z,95942.41
2022-12-10T01:47:30.003Z,95942.75
2022-12-10T01:50:17.487Z,95939.63
2022-12-10T01:53:04.725Z,95951.28
2022-12-10T01:55:51.871Z,95944.41
2022-12-10T01:58:39.220Z,95940.47
2022-12-10T02:01:37.806Z,95940.28
2022-12-10T02:04:42.925Z,95937.50
2022-12-10T02:08:03.594Z,95937.84
2022-12-10T02:10:59.469Z,95931.94
2022-12-10T02:13:53.537Z,95930.78
2022-12-10T02:16:53.992Z,95949.50
2022-12-10T02:19:58.924Z,95952.94
2022-12-10T02:22:58.089Z,95953.25
2022-12-10T02:25:52.567Z,95948.69
2022-12-10T02:28:52.351Z,95945.06
2022-12-10T02:31:42.869Z,95940.00
2022-12-10T02:34:52.252Z,95935.69
2022-12-10T02:37:44.919Z,95945.25
2022-12-10T02:40:38.185Z,95946.06
2022-12-10T02:43:25.588Z,95946.06
2022-12-10T02:46:12.694Z,95943.56
2022-12-10T02:49:01.307Z,95934.75
2022-12-10T02:51:48.156Z,95932.94
2022-12-10T02:54:39.896Z,95925.38
2022-12-10T02:57:51.574Z,95927.69
2022-12-10T03:00:49.209Z,95917.50
2022-12-10T03:03:45.840Z,95923.91
2022-12-10T03:06:39.295Z,95917.31
2022-12-10T03:09:31.694Z,95925.38
2022-12-10T03:12:23.924Z,95923.56
2022-12-10T03:15:12.604Z,95923.56
2022-12-10T03:18:02.180Z,95910.44
2022-12-10T03:20:49.512Z,95915.03
2022-12-10T03:23:39.375Z,95915.38
2022-12-10T03:26:26.465Z,95917.84
2022-12-10T03:29:22.536Z,95918.97
2022-12-10T03:32:09.367Z,95920.97
2022-12-10T03:34:57.909Z,95924.06
2022-12-10T03:37:44.734Z,95921.59
2022-12-10T03:40:31.894Z,95919.81
2022-12-10T03:43:18.707Z,95923.41
2022-12-10T03:46:05.717Z,95931.97
2022-12-10T03:48:52.998Z,95923.25
2022-12-10T03:51:39.913Z,95920.78
2022-12-10T03:54:26.835Z,95928.50
2022-12-10T03:57:13.791Z,95918.97
2022-12-10T04:00:08.310Z,95899.63
2022-12-10T04:02:55.489Z,95909.66
2022-12-10T04:05:42.306Z,95912.44
2022-12-10T04:08:29.271Z,95921.78
2022-12-10T04:11:17.125Z,95915.88
2022-12-10T04:14:22.626Z,95913.09
2022-12-10T04:17:09.456Z,95917.53
2022-12-10T04:19:56.259Z,95920.31
2022-12-10T04:23:01.826Z,95920.81
2022-12-10T04:26:07.221Z,95921.28
2022-12-10T04:28:53.970Z,95915.22
2022-12-10T04:31:40.752Z,95914.41
2022-12-10T04:34:27.739Z,95912.75
2022-12-10T04:37:19.134Z,95908.34
2022-12-10T04:40:07.218Z,95911.94
2022-12-10T04:42:54.299Z,95908.69
2022-12-10T04:45:41.140Z,95920.81
2022-12-10T04:48:27.987Z,95924.25
2022-12-10T04:51:17.650Z,95921.81
2022-12-10T04:54:05.316Z,95934.75
2022-12-10T04:56:52.342Z,95918.69
2022-12-10T04:59:39.227Z,95917.69
2022-12-10T05:02:26.071Z,95923.44
2022-12-10T05:05:16.144Z,95931.31
2022-12-10T05:08:12.163Z,95928.00
2022-12-10T05:11:03.620Z,95933.94
2022-12-10T05:13:54.274Z,95930.63
2022-12-10T05:16:41.349Z,95928.69
2022-12-10T05:19:28.205Z,95941.00
2022-12-10T05:22:36.165Z,95940.16
2022-12-10T05:25:23.009Z,95941.13
2022-12-10T05:28:09.867Z,95933.25
2022-12-10T05:30:57.464Z,95934.91
2022-12-10T05:33:44.481Z,95942.94
2022-12-10T05:36:32.469Z,95949.00
2022-12-10T05:39:19.282Z,95950.00
2022-12-10T05:42:06.168Z,95944.75
2022-12-10T05:44:52.914Z,95943.28
2022-12-10T05:47:39.810Z,95942.31
2022-12-10T05:50:26.571Z,95938.03
2022-12-10T05:53:14.863Z,95943.44
2022-12-10T05:56:04.586Z,95944.44
2022-12-10T05:58:52.994Z,95941.81
2022-12-10T06:01:39.748Z,95941.97
2022-12-10T06:04:26.533Z,95946.88
2022-12-10T06:07:13.430Z,95942.97
2022-12-10T06:10:00.189Z,95938.19
2022-12-10T06:12:49.877Z,95926.22
2022-12-10T06:15:39.828Z,95931.47
2022-12-10T06:18:26.656Z,95932.47
2022-12-10T06:21:15.960Z,95945.59
2022-12-10T06:24:02.624Z,95949.84
2022-12-10T06:26:52.670Z,95945.75
2022-12-10T06:29:42.323Z,95948.38
2022-12-10T06:32:29.132Z,95951.66
2022-12-10T06:35:15.919Z,95945.75
2022-12-10T06:38:02.732Z,95955.25
2022-12-10T06:40:49.582Z,95953.47
2022-12-10T06:43:36.990Z,95969.19
2022-12-10T06:46:23.869Z,95965.75
2022-12-10T06:49:10.811Z,95964.94
2022-12-10T06:51:57.669Z,95966.56
2022-12-10T06:54:44.465Z,95976.91
2022-12-10T06:57:34.287Z,95977.88
2022-12-10T07:00:22.282Z,95984.78
2022-12-10T07:03:09.198Z,95974.44
2022-12-10T07:05:58.741Z,95976.09
2022-12-10T07:08:45.635Z,95978.06
2022-12-10T07:11:32.541Z,95980.50
2022-12-10T07:14:19.541Z,95985.75
2022-12-10T07:17:06.380Z,95982.31
2022-12-10T07:19:53.173Z,95984.13
2022-12-10T07:22:43.259Z,95982.31
2022-12-10T07:25:51.080Z,95976.09
2022-12-10T07:28:46.636Z,95956.25
2022-12-10T07:31:38.973Z,95954.59
2022-12-10T07:34:25.898Z,95957.41
2022-12-10T07:37:12.801Z,95969.53
2022-12-10T07:39:59.686Z,95960.03
2022-12-10T07:42:47.581Z,95978.22
2022-12-10T07:45:34.424Z,95979.03
2022-12-10T07:48:21.514Z,95998.25
2022-12-10T07:51:12.859Z,95983.78
2022-12-10T07:53:59.634Z,95983.63
2022-12-10T07:56:46.505Z,95990.69
2022-12-10T07:59:33.309Z,95999.22
2022-12-10T08:02:20.662Z,95991.34
2022-12-10T08:05:07.697Z,96003.50
2022-12-10T08:08:03.046Z,95998.38
2022-12-10T08:10:52.086Z,95994.44
2022-12-10T08:13:39.053Z,96004.94
2022-12-10T08:16:34.779Z,96013.16
2022-12-10T08:19:25.806Z,96002.66
2022-12-10T08:22:26.178Z,96006.44
2022-12-10T08:25:15.901Z,96014.31
2022-12-10T08:28:03.966Z,96009.53
2022-12-10T08:31:03.673Z,96018.56
2022-12-10T08:33:52.238Z,96011.19
2022-12-10T08:36:39.121Z,96013.13
2022-12-10T08:39:31.600Z,96011.50
2022-12-10T08:42:18.397Z,96026.44
2022-12-10T08:45:06.395Z,96017.25
2022-12-10T08:47:53.494Z,96025.75
2022-12-10T09:58:36.926Z,96002.16
2022-12-10T10:45:52.524Z,96011.38
2022-12-10T10:48:42.496Z,96008.75
2022-12-10T10:51:33.072Z,96010.03
2022-12-10T10:58:23.596Z,96007.22
2022-12-10T11:06:03.610Z,96004.09
2022-12-10T11:09:33.138Z,96010.16
2022-12-10T11:25:41.595Z,95976.63
2022-12-10T11:40:38.456Z,95954.09
2022-12-10T11:44:26.868Z,95966.06
2022-12-10T11:47:57.009Z,95963.25
2022-12-10T12:12:42.556Z,95969.31
2022-12-10T12:21:25.691Z,95984.06
2022-12-10T12:24:06.218Z,95982.78
2022-12-10T12:35:24.933Z,95967.50
2022-12-10T12:46:49.412Z,95979.31
2022-12-10T13:00:34.519Z,95986.19
2022-12-10T13:03:57.078Z,96002.91
2022-12-10T13:07:45.969Z,95989.63
2022-12-10T13:11:28.187Z,95990.78
2022-12-10T13:15:22.720Z,95976.00
2022-12-10T13:21:54.594Z,96001.81
2022-12-10T13:26:27.100Z,96006.56
2022-12-10T13:30:00.831Z,96017.22
2022-12-10T13:45:22.610Z,96030.25
2022-12-10T13:52:33.260Z,96043.19
2022-12-10T14:52:25.629Z,96074.44
2022-12-10T15:19:03.135Z,96108.94
2022-12-10T15:30:57.929Z,96117.31
2022-12-10T15:34:32.972Z,96110.09
2022-12-10T15:38:41.595Z,96103.19
2022-12-10T15:42:33.457Z,96106.47
2022-12-10T16:13:31.950Z,96139.16
2022-12-10T16:16:21.597Z,96133.59
2022-12-10T16:19:34.527Z,96137.38
2022-12-10T16:22:24.916Z,96135.09
2022-12-10T16:25:12.067Z,96135.59
2022-12-10T16:28:09.612Z,96131.47
2022-12-10T16:30:58.657Z,96143.28
2022-12-10T16:33:47.755Z,96147.59
2022-12-10T16:36:36.712Z,96155.16
2022-12-10T16:39:31.226Z,96160.91
2022-12-10T16:42:26.140Z,96154.78
2022-12-10T16:45:32.231Z,96163.53
2022-12-10T16:48:20.177Z,96157.28
2022-12-10T16:51:16.296Z,96150.53
2022-12-10T16:54:04.612Z,96149.88
2022-12-10T16:56:54.573Z,96166.97
2022-12-10T16:59:47.242Z,96158.25
2022-12-10T17:02:36.793Z,96175.34
2022-12-10T17:05:31.324Z,96171.25
2022-12-10T17:08:22.069Z,96175.84
2022-12-10T17:11:37.884Z,96173.53
2022-12-10T17:14:29.507Z,96182.25
2022-12-10T17:17:21.860Z,96179.13
2022-12-10T17:20:17.485Z,96184.56
2022-12-10T17:23:06.995Z,96186.19
2022-12-10T17:25:54.096Z,96188.66
2022-12-10T17:28:47.143Z,96194.75
2022-12-10T17:31:34.252Z,96195.25
2022-12-10T17:34:25.253Z,96205.59
2022-12-10T17:37:15.601Z,96201.31
2022-12-10T17:40:03.775Z,96198.03
2022-12-10T17:42:51.391Z,96207.03
2022-12-10T17:45:41.272Z,96203.47
2022-12-10T17:48:36.011Z,96208.03
2022-12-10T17:51:32.933Z,96187.03
2022-12-10T17:54:19.771Z,96201.97
2022-12-10T17:57:14.868Z,96206.22
2022-12-10T18:00:01.897Z,96200.81
2022-12-10T18:02:49.726Z,96216.09
2022-12-10T18:05:36.716Z,96213.94
2022-12-10T18:08:36.333Z,96219.19
2022-12-10T18:11:26.282Z,96221.81
2022-12-10T18:14:15.637Z,96227.41
2022-12-10T18:17:04.307Z,96221.16
2022-12-10T18:19:53.882Z,96235.47
2022-12-10T18:22:43.061Z,96236.44
2022-12-10T18:25:30.701Z,96234.28
2022-12-10T18:28:25.633Z,96247.28
2022-12-10T18:31:26.200Z,96243.47
2022-12-10T18:34:14.897Z,96247.09
2022-12-10T18:37:02.869Z,96250.22
2022-12-10T18:39:52.462Z,96236.41
2022-12-10T18:42:43.730Z,96248.56
2022-12-10T18:45:36.164Z,96255.63
2022-12-10T18:48:24.121Z,96257.28
2022-12-10T18:51:40.244Z,96248.72
2022-12-10T18:54:31.935Z,96247.72
2022-12-10T18:57:34.025Z,96257.75
2022-12-10T19:00:29.556Z,96255.28
2022-12-10T19:03:20.883Z,96258.72
2022-12-10T19:06:14.390Z,96256.41
2022-12-10T19:09:18.223Z,96262.50
2022-12-10T19:12:09.033Z,96264.47
2022-12-10T19:15:06.444Z,96270.03
2022-12-10T19:18:10.733Z,96265.09
2022-12-10T19:20:59.922Z,96267.72
2022-12-10T19:23:47.006Z,96255.06
2022-12-10T19:26:42.106Z,96268.03
2022-12-10T19:29:36.762Z,96277.41
2022-12-10T19:32:33.274Z,96277.59
2022-12-10T19:38:35.884Z,96278.34
2022-12-10T19:41:32.421Z,96272.28
2022-12-10T19:44:21.445Z,96289.88
2022-12-10T19:47:20.820Z,96281.34
2022-12-10T19:50:12.511Z,96280.66
2022-12-10T19:53:00.279Z,96288.59
2022-12-10T19:55:51.367Z,96277.25
2022-12-10T19:58:40.580Z,96276.09
2022-12-10T20:01:30.100Z,96274.59
2022-12-10T20:04:31.525Z,96278.03
2022-12-10T20:07:24.042Z,96270.13
2022-12-10T20:10:25.879Z,96282.78
2022-12-10T20:13:12.867Z,96275.88
2022-12-10T20:16:00.171Z,96269.16
2022-12-10T20:18:56.984Z,96284.59
2022-12-10T20:21:49.021Z,96284.75
2022-12-10T20:24:37.532Z,96267.69
2022-12-10T20:27:27.388Z,96270.13
2022-12-10T20:30:23.698Z,96274.06
2022-12-10T20:33:44.679Z,96271.44
2022-12-10T20:36:27.033Z,96269.16
2022-12-10T20:39:19.726Z,96270.63
2022-12-10T20:42:06.812Z,96258.66
2022-12-10T20:44:53.663Z,96259.97
2022-12-10T20:47:42.034Z,96254.22
2022-12-10T20:50:31.398Z,96258.50
2022-12-10T20:53:20.719Z,96257.34
2022-12-10T20:56:13.341Z,96257.50
2022-12-10T20:59:00.651Z,96258.81
2022-12-10T21:01:47.889Z,96257.00
2022-12-10T21:04:34.794Z,96256.34
2022-12-10T21:07:29.122Z,96270.94
2022-12-10T21:10:36.625Z,96274.25
2022-12-10T21:13:31.740Z,96274.06
2022-12-10T21:16:27.679Z,96271.44
2022-12-10T21:19:15.098Z,96286.06
2022-12-10T21:22:02.007Z,96287.84
2022-12-10T21:24:52.372Z,96279.78
2022-12-10T21:27:39.461Z,96296.88
2022-12-10T21:30:26.349Z,96288.78
2022-12-10T21:33:20.419Z,96294.38
2022-12-10T21:36:08.876Z,96294.72
2022-12-10T21:39:07.273Z,96295.53
2022-12-10T21:42:12.739Z,96290.44
2022-12-10T21:44:59.956Z,96285.19
2022-12-10T21:47:46.715Z,96290.59
2022-12-10T21:50:33.535Z,96285.50
2022-12-10T21:53:20.435Z,96283.03
2022-12-10T21:56:08.784Z,96281.53
2022-12-10T21:58:55.605Z,96299.59
2022-12-10T22:01:49.818Z,96302.91
2022-12-10T22:04:37.301Z,96302.91
2022-12-10T22:07:25.046Z,96303.22
2022-12-10T22:14:03.726Z,96294.16
2022-12-10T22:16:50.935Z,96298.59
2022-12-10T22:19:46.244Z,96292.81
2022-12-10T22:22:34.367Z,96290.69
2022-12-10T22:25:24.245Z,96293.31
2022-12-10T22:28:13.185Z,96283.94
2022-12-10T22:31:00.149Z,96289.19
2022-12-10T22:33:50.034Z,96297.72
2022-12-10T22:36:36.939Z,96295.41
2022-12-10T22:39:26.996Z,96296.06
2022-12-10T22:42:14.267Z,96283.41
2022-12-10T22:45:01.259Z,96278.66
2022-12-10T22:47:50.829Z,96294.91
2022-12-10T22:50:40.132Z,96289.66
2022-12-10T22:53:27.042Z,96282.91
2022-12-10T22:56:14.999Z,96286.69
2022-12-10T22:59:01.939Z,96278.75
2022-12-10T23:01:48.869Z,96291.25
2022-12-10T23:04:35.882Z,96279.25
2022-12-10T23:07:22.848Z,96277.28
2022-12-10T23:10:09.840Z,96281.38
2022-12-10T23:13:13.795Z,96276.13
2022-12-10T23:16:00.652Z,96267.09
2022-12-10T23:18:50.667Z,96269.84
2022-12-10T23:21:40.419Z,96288.72
2022-12-10T23:24:27.367Z,96278.69
2022-12-10T23:27:19.149Z,96284.13
2022-12-10T23:30:08.154Z,96287.69
2022-12-10T23:33:08.260Z,96283.91
2022-12-10T23:35:58.812Z,96284.41
2022-12-10T23:38:47.829Z,96284.72
2022-12-10T23:41:34.658Z,96285.69
2022-12-10T23:44:21.679Z,96289.16
2022-12-10T23:47:14.038Z,96288.31
2022-12-10T23:50:01.006Z,96275.34
2022-12-10T23:52:48.133Z,96285.03
2022-12-10T23:55:34.960Z,96284.38
2022-12-10T23:58:22.127Z,96279.25
